Time;durP1;ratioP1;P1;durP2;ratioP2;P2;SDS_P1;SDS_P2;PMS_P1;PMS_P2;Temp;Humidity;BMP_temperature;BMP_pressure;BME280_temperature;BME280_humidity;BME280_pressure;Samples;Min_cycle;Max_cycle;Signal;HPM_P1;HPM_P2
2021/12/22 00:01:38;;;;;;;0.00;0.00;;;-5.80;61.50;;;;;;5013883;28;20108;-75
2021/12/22 00:04:04;;;;;;;0.00;0.00;;;-5.90;61.60;;;;;;5013916;28;20034;-75
2021/12/22 00:06:32;;;;;;;0.00;0.00;;;-5.90;61.70;;;;;;5013434;28;20358;-75
2021/12/22 00:08:59;;;;;;;0.10;0.10;;;-5.90;61.70;;;;;;5013371;28;20109;-75
2021/12/22 00:11:25;;;;;;;0.05;0.05;;;-5.90;61.80;;;;;;5014132;28;20057;-75
2021/12/22 00:13:51;;;;;;;0.00;0.00;;;-5.90;61.90;;;;;;5013081;28;20033;-76
2021/12/22 00:16:17;;;;;;;0.13;0.13;;;-6.00;61.70;;;;;;5013558;28;20104;-75
2021/12/22 00:18:45;;;;;;;0.00;0.00;;;-6.00;61.80;;;;;;5013617;28;20466;-75
2021/12/22 00:21:11;;;;;;;0.00;0.00;;;-6.00;61.80;;;;;;5013337;28;20030;-77
2021/12/22 00:23:37;;;;;;;0.10;0.10;;;-6.00;61.80;;;;;;5013277;28;20088;-75
2021/12/22 00:26:04;;;;;;;0.00;0.00;;;-6.10;61.90;;;;;;5013123;28;20386;-74
2021/12/22 00:28:32;;;;;;;0.00;0.00;;;-6.10;61.70;;;;;;5013484;28;20034;-74
2021/12/22 00:31:01;;;;;;;0.00;0.00;;;-6.20;61.60;;;;;;5013541;28;20030;-74
2021/12/22 00:33:28;;;;;;;0.00;0.00;;;-6.20;61.70;;;;;;5013800;28;20038;-74
2021/12/22 00:35:54;;;;;;;0.00;0.00;;;-6.30;61.70;;;;;;5013062;28;20117;-74
2021/12/22 00:38:21;;;;;;;0.00;0.00;;;-6.40;61.70;;;;;;5013404;28;20076;-74
2021/12/22 00:40:48;;;;;;;0.00;0.00;;;-6.50;61.60;;;;;;5013560;28;20026;-74
2021/12/22 00:43:17;;;;;;;0.00;0.00;;;-6.60;61.70;;;;;;5013090;28;20454;-75
2021/12/22 00:45:43;;;;;;;0.00;0.00;;;-6.70;61.80;;;;;;5013216;28;20026;-74
2021/12/22 00:48:11;;;;;;;0.03;0.03;;;-6.80;61.90;;;;;;4996099;28;20115;-74
2021/12/22 00:50:40;;;;;;;0.00;0.00;;;-6.80;62.20;;;;;;4995805;28;20018;-74
2021/12/22 00:53:06;;;;;;;0.00;0.00;;;-6.90;62.20;;;;;;4994822;28;20092;-74
2021/12/22 00:55:32;;;;;;;0.00;0.00;;;-7.00;62.20;;;;;;5012990;28;20034;-74
2021/12/22 00:57:58;;;;;;;0.00;0.00;;;-7.00;62.40;;;;;;5012771;28;20033;-73
2021/12/22 01:00:27;;;;;;;0.00;0.00;;;-7.10;62.40;;;;;;5012967;28;20026;-74
2021/12/22 01:02:52;;;;;;;0.00;0.00;;;-7.20;62.40;;;;;;4996475;28;20421;-74
2021/12/22 01:05:19;;;;;;;0.00;0.00;;;-7.20;62.50;;;;;;5016790;28;20057;-74
2021/12/22 01:07:47;;;;;;;0.00;0.00;;;-7.20;62.60;;;;;;5016522;28;20025;-74
2021/12/22 01:10:14;;;;;;;0.00;0.00;;;-7.30;62.70;;;;;;5016444;28;20130;-74
2021/12/22 01:12:40;;;;;;;0.00;0.00;;;-7.40;62.80;;;;;;5016420;28;20034;-74
2021/12/22 01:15:11;;;;;;;0.00;0.00;;;-7.40;63.00;;;;;;5016866;28;20037;-74
2021/12/22 01:17:43;;;;;;;0.17;0.00;;;-7.40;63.00;;;;;;5016480;28;20026;-74
2021/12/22 01:20:22;;;;;;;0.00;0.00;;;-7.40;63.00;;;;;;5016370;28;20026;-74
2021/12/22 01:22:48;;;;;;;0.03;0.03;;;-7.40;63.00;;;;;;5016335;28;20117;-74
2021/12/22 01:25:23;;;;;;;0.00;0.00;;;-7.40;63.00;;;;;;5016444;28;20117;-74
2021/12/22 01:27:49;;;;;;;0.00;0.00;;;-7.40;63.10;;;;;;5016199;28;20079;-74
2021/12/22 01:30:22;;;;;;;0.00;0.00;;;-7.50;63.10;;;;;;5015976;28;20109;-77
2021/12/22 01:32:54;;;;;;;0.00;0.00;;;-7.50;63.00;;;;;;5015921;28;20066;-74
2021/12/22 01:35:24;;;;;;;0.00;0.00;;;-7.50;63.00;;;;;;5016104;28;20037;-73
2021/12/22 01:37:50;;;;;;;0.08;0.00;;;-7.50;63.10;;;;;;5016061;28;20029;-74
2021/12/22 01:40:17;;;;;;;0.00;0.00;;;-7.60;63.10;;;;;;5015731;28;20022;-74
2021/12/22 01:42:43;;;;;;;0.10;0.10;;;-7.60;63.20;;;;;;5015740;28;20049;-74
2021/12/22 01:45:47;;;;;;;0.10;0.10;;;-7.60;63.10;;;;;;5016077;28;20421;-74
2021/12/22 01:51:05;;;;;;;0.30;0.08;;;-7.70;63.20;;;;;;5015985;28;20033;-74
2021/12/22 01:53:49;;;;;;;0.10;0.10;;;-7.70;63.20;;;;;;5015416;28;20045;-74
2021/12/22 01:56:25;;;;;;;0.10;0.10;;;-7.70;63.30;;;;;;5015706;28;20061;-74
2021/12/22 01:58:53;;;;;;;0.00;0.00;;;-7.80;63.20;;;;;;5015493;28;20042;-74
2021/12/22 02:01:26;;;;;;;0.08;0.08;;;-7.90;63.30;;;;;;5015871;28;20076;-74
2021/12/22 02:03:52;;;;;;;0.00;0.00;;;-7.90;64.00;;;;;;5016196;28;20120;-74
2021/12/22 02:06:19;;;;;;;0.00;0.00;;;-7.90;63.50;;;;;;5014461;28;20087;-76
2021/12/22 02:08:45;;;;;;;0.05;0.05;;;-8.00;63.50;;;;;;5014948;28;20366;-74
2021/12/22 02:11:14;;;;;;;0.00;0.00;;;-8.10;63.70;;;;;;5015283;28;20026;-74
2021/12/22 02:13:43;;;;;;;0.10;0.10;;;-8.10;63.80;;;;;;5015560;28;20378;-74
2021/12/22 02:16:13;;;;;;;0.05;0.05;;;-8.10;63.90;;;;;;5013642;28;20036;-74
2021/12/22 02:18:46;;;;;;;0.00;0.00;;;-8.10;64.00;;;;;;5015107;28;20029;-74
2021/12/22 02:21:12;;;;;;;0.10;0.10;;;-8.20;64.00;;;;;;5015401;28;20347;-74
2021/12/22 02:23:39;;;;;;;0.00;0.00;;;-8.20;64.00;;;;;;5014922;28;20034;-74
2021/12/22 02:26:13;;;;;;;0.00;0.00;;;-8.20;64.10;;;;;;5015014;28;20026;-74
2021/12/22 02:28:44;;;;;;;0.00;0.00;;;-8.20;64.20;;;;;;5015190;28;20026;-74
2021/12/22 02:31:14;;;;;;;0.00;0.00;;;-8.20;64.20;;;;;;5014797;28;20113;-74
2021/12/22 02:33:42;;;;;;;0.00;0.00;;;-8.20;64.30;;;;;;5015203;28;20068;-74
2021/12/22 02:36:19;;;;;;;0.00;0.00;;;-8.20;64.40;;;;;;5014705;28;20473;-73
2021/12/22 02:38:56;;;;;;;0.10;0.10;;;-8.30;64.50;;;;;;5015047;28;20103;-75
2021/12/22 02:41:27;;;;;;;0.00;0.00;;;-8.30;64.50;;;;;;5014544;28;20077;-75
2021/12/22 02:43:55;;;;;;;0.03;0.03;;;-8.20;64.60;;;;;;5015217;28;20061;-75
2021/12/22 02:46:23;;;;;;;0.03;0.03;;;-8.20;64.60;;;;;;5014509;28;20076;-75
2021/12/22 02:48:49;;;;;;;0.08;0.08;;;-8.20;64.50;;;;;;5014412;28;20041;-75
2021/12/22 02:51:16;;;;;;;0.00;0.00;;;-8.30;64.50;;;;;;5014729;28;20051;-75
2021/12/22 03:01:39;;;;;;;0.00;0.00;;;-8.40;64.60;;;;;;5014752;28;20030;-74
2021/12/22 03:04:12;;;;;;;0.10;0.10;;;-8.40;64.60;;;;;;5000565;28;20057;-74
2021/12/22 03:09:32;;;;;;;0.00;0.00;;;-8.40;64.70;;;;;;5014301;28;20109;-74
2021/12/22 03:12:03;;;;;;;0.00;0.00;;;-8.50;64.60;;;;;;5014869;28;20036;-74
2021/12/22 03:14:32;;;;;;;0.03;0.03;;;-8.50;64.70;;;;;;5014296;28;20072;-75
2021/12/22 03:16:58;;;;;;;0.05;0.05;;;-8.50;64.80;;;;;;5014349;28;20072;-74
2021/12/22 03:19:27;;;;;;;0.10;0.10;;;-8.60;64.80;;;;;;5014067;28;20064;-75
2021/12/22 03:22:03;;;;;;;0.00;0.00;;;-8.60;64.80;;;;;;5013783;28;20486;-74
2021/12/22 03:24:30;;;;;;;0.00;0.00;;;-8.60;64.80;;;;;;5013750;28;20042;-75
2021/12/22 03:26:59;;;;;;;0.10;0.10;;;-8.60;64.80;;;;;;5013602;28;20084;-74
2021/12/22 03:29:25;;;;;;;0.00;0.00;;;-8.60;64.80;;;;;;5014057;28;20030;-75
2021/12/22 03:31:50;;;;;;;0.00;0.00;;;-8.70;64.70;;;;;;5014419;28;20110;-74
2021/12/22 03:34:18;;;;;;;0.00;0.00;;;-8.70;64.90;;;;;;5014450;28;20065;-74
2021/12/22 03:36:44;;;;;;;0.10;0.10;;;-8.70;65.00;;;;;;5014174;28;20029;-74
2021/12/22 03:39:12;;;;;;;0.10;0.10;;;-8.70;65.00;;;;;;4996915;28;20030;-74
2021/12/22 03:41:41;;;;;;;0.10;0.10;;;-8.70;65.20;;;;;;5014126;28;20060;-74
2021/12/22 03:44:07;;;;;;;0.00;0.00;;;-8.70;65.30;;;;;;5013831;28;20060;-74
2021/12/22 03:46:34;;;;;;;0.00;0.00;;;-8.70;65.30;;;;;;5013701;28;20428;-74
2021/12/22 03:49:00;;;;;;;0.10;0.10;;;-8.70;65.40;;;;;;5013460;28;20370;-74
2021/12/22 03:51:30;;;;;;;0.10;0.10;;;-8.70;65.40;;;;;;5013828;28;20037;-74
2021/12/22 03:53:55;;;;;;;0.10;0.10;;;-8.70;65.50;;;;;;5013666;28;20038;-74
2021/12/22 03:56:21;;;;;;;0.00;0.00;;;-8.70;65.40;;;;;;5013446;28;20033;-74
2021/12/22 03:58:47;;;;;;;0.00;0.00;;;-8.70;65.50;;;;;;5013757;28;20121;-74
2021/12/22 04:01:14;;;;;;;0.00;0.00;;;-8.70;65.40;;;;;;5013779;28;20033;-74
2021/12/22 04:03:42;;;;;;;0.08;0.08;;;-8.70;65.40;;;;;;5013401;28;20034;-74
2021/12/22 04:06:09;;;;;;;0.00;0.00;;;-8.70;65.50;;;;;;5013677;28;20485;-74
2021/12/22 04:08:35;;;;;;;0.10;0.10;;;-8.70;65.50;;;;;;5013563;28;20030;-74
2021/12/22 04:11:01;;;;;;;0.10;0.10;;;-8.70;65.40;;;;;;5014056;28;20510;-74
2021/12/22 04:13:26;;;;;;;0.00;0.00;;;-8.70;65.40;;;;;;5012664;28;20125;-77
2021/12/22 04:15:58;;;;;;;0.00;0.00;;;-8.70;65.40;;;;;;5013382;28;20098;-75
2021/12/22 04:18:23;;;;;;;0.00;0.00;;;-8.70;65.40;;;;;;5013316;28;20034;-74
2021/12/22 04:20:49;;;;;;;0.10;0.10;;;-8.80;65.40;;;;;;5013607;28;20076;-75
2021/12/22 04:23:15;;;;;;;0.10;0.10;;;-8.80;65.40;;;;;;5013702;28;20030;-74
2021/12/22 04:25:42;;;;;;;0.00;0.00;;;-8.80;65.40;;;;;;4995737;28;20022;-73
2021/12/22 04:28:09;;;;;;;0.00;0.00;;;-8.80;65.40;;;;;;5013603;28;20030;-74
2021/12/22 04:30:39;;;;;;;0.00;0.00;;;-8.80;65.40;;;;;;5013254;28;20408;-76
2021/12/22 04:33:05;;;;;;;0.10;0.10;;;-8.90;65.50;;;;;;5013645;28;20042;-74
2021/12/22 04:35:31;;;;;;;0.10;0.10;;;-8.90;65.60;;;;;;5013298;28;20026;-75
2021/12/22 04:37:59;;;;;;;0.08;0.08;;;-8.90;65.70;;;;;;5013432;28;20054;-74
2021/12/22 04:40:25;;;;;;;0.10;0.10;;;-8.90;65.70;;;;;;5017057;28;20026;-74
2021/12/22 04:42:51;;;;;;;0.10;0.10;;;-8.80;65.70;;;;;;5017182;28;20473;-75
2021/12/22 04:45:17;;;;;;;0.10;0.10;;;-8.80;65.70;;;;;;5016770;28;20030;-74
2021/12/22 04:47:47;;;;;;;0.10;0.10;;;-8.80;65.70;;;;;;5016902;28;20338;-74
2021/12/22 04:50:17;;;;;;;0.03;0.03;;;-8.80;65.60;;;;;;5016828;28;20032;-74
2021/12/22 04:53:10;;;;;;;0.00;0.00;;;-8.80;65.60;;;;;;5017130;28;20033;-74
2021/12/22 04:55:34;;;;;;;0.10;0.10;;;-8.80;65.60;;;;;;5016188;28;20057;-74
2021/12/22 04:58:00;;;;;;;0.20;0.20;;;-8.70;65.60;;;;;;5016514;28;20458;-75
2021/12/22 05:00:29;;;;;;;0.13;0.13;;;-8.70;65.70;;;;;;5016899;28;20113;-75
2021/12/22 05:02:56;;;;;;;0.00;0.00;;;-8.70;66.30;;;;;;5016533;28;20030;-75
2021/12/22 05:05:22;;;;;;;0.10;0.10;;;-8.70;65.60;;;;;;5016588;28;20022;-75
2021/12/22 05:07:48;;;;;;;0.15;0.15;;;-8.70;65.60;;;;;;5016452;28;20053;-75
2021/12/22 05:10:15;;;;;;;0.10;0.10;;;-8.70;65.70;;;;;;5016942;28;20065;-75
2021/12/22 05:12:42;;;;;;;0.10;0.10;;;-8.60;65.70;;;;;;5016398;28;20466;-75
2021/12/22 05:15:08;;;;;;;0.10;0.10;;;-8.60;65.60;;;;;;5016033;28;20500;-75
2021/12/22 05:20:24;;;;;;;0.10;0.10;;;-8.50;65.80;;;;;;4997332;28;20053;-76
2021/12/22 05:22:51;;;;;;;0.00;0.00;;;-8.50;65.70;;;;;;5016446;28;20084;-74
2021/12/22 05:25:17;;;;;;;0.10;0.10;;;-8.50;65.70;;;;;;5016101;28;20072;-74
2021/12/22 05:27:43;;;;;;;0.00;0.00;;;-8.50;65.70;;;;;;5016043;28;20030;-75
2021/12/22 05:30:10;;;;;;;0.00;0.00;;;-8.40;65.70;;;;;;5016579;28;20033;-75
2021/12/22 05:32:37;;;;;;;0.10;0.10;;;-8.40;65.60;;;;;;5016060;28;20046;-75
2021/12/22 05:35:06;;;;;;;0.00;0.00;;;-8.40;65.60;;;;;;5015939;28;20052;-75
2021/12/22 05:37:33;;;;;;;0.00;0.00;;;-8.40;65.70;;;;;;5015630;28;20138;-77
2021/12/22 05:39:59;;;;;;;0.10;0.10;;;-8.40;65.80;;;;;;5015825;28;20080;-77
2021/12/22 05:42:26;;;;;;;0.03;0.03;;;-8.30;65.70;;;;;;5015745;28;20033;-76
2021/12/22 05:44:53;;;;;;;0.15;0.15;;;-8.30;65.70;;;;;;5015675;28;20033;-76
2021/12/22 05:47:18;;;;;;;0.00;0.00;;;-8.30;65.60;;;;;;5015815;28;20039;-75
2021/12/22 05:49:44;;;;;;;0.05;0.05;;;-8.30;65.50;;;;;;5015880;28;20402;-77
2021/12/22 05:52:11;;;;;;;0.10;0.10;;;-8.30;65.50;;;;;;5016594;28;20370;-75
2021/12/22 05:54:37;;;;;;;0.20;0.20;;;-8.30;65.80;;;;;;5016647;28;20048;-76
2021/12/22 05:57:03;;;;;;;0.00;0.00;;;-8.30;65.80;;;;;;5015686;28;20034;-75
2021/12/22 05:59:29;;;;;;;0.00;0.00;;;-8.30;65.70;;;;;;5016531;28;20060;-76
2021/12/22 06:01:54;;;;;;;0.25;0.25;;;-8.20;65.70;;;;;;4997929;28;20462;-76
2021/12/22 06:04:20;;;;;;;0.00;0.00;;;-8.20;65.60;;;;;;5015623;28;20108;-76
2021/12/22 06:06:46;;;;;;;0.20;0.20;;;-8.20;65.60;;;;;;5015387;28;20018;-75
2021/12/22 06:09:11;;;;;;;0.10;0.10;;;-8.20;65.70;;;;;;5015934;28;20101;-76
2021/12/22 06:11:37;;;;;;;0.00;0.00;;;-8.20;65.90;;;;;;5015699;28;20476;-76
2021/12/22 06:14:03;;;;;;;0.00;0.00;;;-8.10;66.20;;;;;;4996879;28;20492;-75
2021/12/22 06:16:30;;;;;;;0.00;0.00;;;-8.00;66.30;;;;;;5015071;28;20095;-75
2021/12/22 06:18:58;;;;;;;0.10;0.10;;;-7.90;66.20;;;;;;5015002;28;20026;-75
2021/12/22 06:21:25;;;;;;;0.05;0.05;;;-7.80;66.00;;;;;;5015188;28;20033;-74
2021/12/22 06:23:51;;;;;;;0.00;0.00;;;-7.80;65.80;;;;;;5014099;28;20045;-75
2021/12/22 06:26:17;;;;;;;0.08;0.08;;;-7.70;65.60;;;;;;5015201;28;20029;-78
2021/12/22 06:28:42;;;;;;;0.00;0.00;;;-7.70;65.60;;;;;;5014621;28;20030;-76
2021/12/22 06:31:08;;;;;;;0.00;0.00;;;-7.60;65.60;;;;;;5014855;28;20119;-76
2021/12/22 06:33:34;;;;;;;0.20;0.20;;;-7.60;65.60;;;;;;5014475;28;20061;-76
2021/12/22 06:36:00;;;;;;;0.10;0.10;;;-7.60;65.50;;;;;;5014788;28;20033;-76
2021/12/22 06:38:26;;;;;;;0.28;0.28;;;-7.50;65.40;;;;;;5014348;28;20030;-75
2021/12/22 06:40:52;;;;;;;0.10;0.10;;;-7.50;65.50;;;;;;5014568;28;20030;-75
2021/12/22 06:43:18;;;;;;;0.13;0.13;;;-7.50;65.60;;;;;;5014518;28;20488;-75
2021/12/22 06:45:44;;;;;;;0.10;0.10;;;-7.40;65.70;;;;;;5014858;28;20036;-75
2021/12/22 06:48:10;;;;;;;0.20;0.20;;;-7.30;65.70;;;;;;5014184;28;20025;-76
2021/12/22 06:50:35;;;;;;;0.15;0.15;;;-7.10;65.80;;;;;;5014704;28;20030;-80
2021/12/22 06:53:01;;;;;;;0.17;0.17;;;-7.00;65.60;;;;;;5014073;28;20030;-75
2021/12/22 06:55:27;;;;;;;0.00;0.00;;;-6.90;65.30;;;;;;5014117;28;20030;-75
2021/12/22 06:57:54;;;;;;;0.05;0.05;;;-6.80;65.30;;;;;;4996692;28;20022;-75
2021/12/22 07:00:21;;;;;;;0.10;0.10;;;-6.70;65.70;;;;;;5014069;28;20365;-76
2021/12/22 07:02:47;;;;;;;0.00;0.00;;;-6.40;65.90;;;;;;5013985;28;20108;-75
2021/12/22 07:05:13;;;;;;;0.00;0.00;;;-6.10;65.80;;;;;;5014042;28;20414;-75
2021/12/22 07:07:40;;;;;;;0.00;0.00;;;-5.90;65.50;;;;;;5014154;28;20030;-77
2021/12/22 07:10:08;;;;;;;0.00;0.00;;;-5.80;65.00;;;;;;5014258;28;20030;-76
2021/12/22 07:12:40;;;;;;;0.03;0.03;;;-5.60;65.00;;;;;;5013863;28;20018;-75
2021/12/22 07:15:09;;;;;;;0.00;0.00;;;-5.40;65.00;;;;;;5014037;28;20519;-75
2021/12/22 07:17:38;;;;;;;0.10;0.10;;;-5.30;64.90;;;;;;5014289;28;20105;-76
2021/12/22 07:20:05;;;;;;;0.00;0.00;;;-5.10;64.70;;;;;;5014130;28;20116;-75
2021/12/22 07:22:32;;;;;;;0.00;0.00;;;-4.90;64.70;;;;;;5013717;28;20030;-75
2021/12/22 07:24:58;;;;;;;0.00;0.00;;;-4.70;64.40;;;;;;5014066;28;20084;-75
2021/12/22 07:27:24;;;;;;;0.03;0.03;;;-4.60;64.30;;;;;;5013871;28;20030;-76
2021/12/22 07:29:50;;;;;;;0.00;0.00;;;-4.50;63.80;;;;;;5013988;28;20167;-76
2021/12/22 07:32:16;;;;;;;0.00;0.00;;;-4.50;63.20;;;;;;5013642;28;20417;-77
2021/12/22 07:34:55;;;;;;;0.00;0.00;;;-4.60;63.20;;;;;;5014427;28;20421;-76
2021/12/22 07:37:33;;;;;;;0.00;0.00;;;-4.60;63.40;;;;;;4996526;28;20466;-77
2021/12/22 07:39:59;;;;;;;0.00;0.00;;;-4.40;63.60;;;;;;5014059;28;20112;-77
2021/12/22 07:42:25;;;;;;;0.00;0.00;;;-4.00;63.80;;;;;;5014127;28;20050;-76
2021/12/22 07:44:50;;;;;;;0.00;0.00;;;-3.70;63.20;;;;;;5013644;28;20025;-77
2021/12/22 07:47:16;;;;;;;0.00;0.00;;;-3.40;62.90;;;;;;5012293;28;20025;-77
2021/12/22 07:49:42;;;;;;;0.00;0.00;;;-3.20;62.90;;;;;;5013944;28;20022;-77
2021/12/22 07:52:08;;;;;;;0.00;0.00;;;-2.80;63.30;;;;;;4996180;28;20026;-76
2021/12/22 07:54:34;;;;;;;0.00;0.00;;;-2.30;63.80;;;;;;5013344;28;20037;-75
2021/12/22 07:57:00;;;;;;;0.00;0.00;;;-1.90;62.40;;;;;;5013219;28;20218;-76
2021/12/22 07:59:26;;;;;;;0.00;0.00;;;-1.60;61.70;;;;;;5013445;28;20184;-76
2021/12/22 08:01:52;;;;;;;0.00;0.00;;;-1.20;61.20;;;;;;5013719;28;20030;-76
2021/12/22 08:04:18;;;;;;;0.00;0.00;;;-0.70;60.90;;;;;;5013427;28;20030;-76
2021/12/22 08:06:47;;;;;;;0.00;0.00;;;0.00;61.20;;;;;;5013570;28;20025;-77
2021/12/22 08:09:12;;;;;;;0.00;0.00;;;0.70;60.30;;;;;;5013399;28;20037;-76
2021/12/22 08:11:38;;;;;;;0.00;0.00;;;1.50;59.50;;;;;;5013971;28;20033;-77
2021/12/22 08:14:04;;;;;;;0.00;0.00;;;2.30;58.40;;;;;;5017076;28;20430;-77
2021/12/22 08:16:29;;;;;;;0.00;0.00;;;3.00;57.30;;;;;;5017628;28;20480;-77
2021/12/22 08:18:55;;;;;;;0.00;0.00;;;3.50;55.90;;;;;;5016864;28;20061;-76
2021/12/22 08:21:21;;;;;;;0.00;0.00;;;3.70;54.20;;;;;;5017792;28;20076;-76
2021/12/22 08:23:46;;;;;;;0.00;0.00;;;3.80;53.90;;;;;;5017710;28;20032;-76
2021/12/22 08:26:12;;;;;;;0.00;0.00;;;4.10;53.40;;;;;;5015754;28;20045;-76
2021/12/22 08:28:38;;;;;;;0.00;0.00;;;4.40;52.80;;;;;;5016947;28;20030;-77
2021/12/22 08:31:04;;;;;;;0.00;0.00;;;4.90;52.20;;;;;;5017105;28;20412;-77
2021/12/22 08:33:32;;;;;;;0.00;0.00;;;4.90;50.30;;;;;;5016847;28;20037;-78
2021/12/22 08:38:51;;;;;;;0.00;0.00;;;4.10;49.30;;;;;;5017504;28;20504;-76
2021/12/22 08:41:22;;;;;;;0.00;0.00;;;4.00;49.10;;;;;;5017445;28;20026;-76
2021/12/22 08:43:49;;;;;;;0.00;0.00;;;3.90;49.20;;;;;;5017501;28;20026;-76
2021/12/22 08:46:15;;;;;;;0.00;0.00;;;4.10;49.20;;;;;;5016825;28;20454;-76
2021/12/22 08:48:41;;;;;;;0.00;0.00;;;3.80;48.60;;;;;;5015302;28;20026;-75
2021/12/22 08:51:07;;;;;;;0.00;0.00;;;3.90;48.80;;;;;;5016687;28;20033;-76
2021/12/22 08:53:32;;;;;;;0.00;0.00;;;4.10;48.60;;;;;;5016346;28;20030;-77
2021/12/22 08:55:58;;;;;;;0.00;0.00;;;4.30;48.10;;;;;;5016524;28;20079;-77
2021/12/22 08:58:24;;;;;;;0.00;0.00;;;4.50;47.30;;;;;;5015438;28;20046;-77
2021/12/22 09:00:49;;;;;;;0.00;0.00;;;4.70;47.40;;;;;;4997242;28;20026;-76
2021/12/22 09:03:15;;;;;;;0.00;0.00;;;4.90;46.30;;;;;;5017159;28;20026;-76
2021/12/22 09:05:41;;;;;;;0.00;0.00;;;4.60;45.60;;;;;;5016469;28;20029;-77
2021/12/22 09:08:06;;;;;;;0.00;0.00;;;4.10;45.30;;;;;;5015574;28;20458;-76
2021/12/22 09:10:32;;;;;;;0.00;0.00;;;3.40;44.80;;;;;;5015978;28;20034;-76
2021/12/22 09:12:58;;;;;;;0.00;0.00;;;2.60;45.60;;;;;;5016245;28;20473;-76
2021/12/22 09:15:24;;;;;;;0.00;0.00;;;2.00;46.40;;;;;;5016643;28;20084;-75
2021/12/22 09:17:51;;;;;;;0.00;0.00;;;1.40;47.00;;;;;;5015495;28;20382;-76
2021/12/22 09:20:17;;;;;;;0.00;0.00;;;1.20;47.70;;;;;;5016283;28;20111;-75
2021/12/22 09:22:42;;;;;;;0.00;0.00;;;1.50;48.40;;;;;;5016316;28;20446;-75
2021/12/22 09:25:09;;;;;;;0.00;0.00;;;2.10;48.50;;;;;;5014252;28;20022;-76
2021/12/22 09:27:34;;;;;;;0.00;0.00;;;2.70;48.10;;;;;;4998370;28;20057;-76
2021/12/22 09:30:00;;;;;;;0.00;0.00;;;3.40;48.00;;;;;;5016427;28;20068;-76
2021/12/22 09:32:26;;;;;;;0.00;0.00;;;3.90;47.30;;;;;;5015987;28;20457;-77
2021/12/22 09:34:52;;;;;;;0.00;0.00;;;4.30;46.90;;;;;;5015474;28;20069;-79
2021/12/22 09:37:18;;;;;;;0.00;0.00;;;4.20;44.90;;;;;;5015428;28;20087;-78
2021/12/22 09:39:44;;;;;;;0.00;0.00;;;4.00;44.80;;;;;;5015062;28;20366;-77
2021/12/22 09:42:11;;;;;;;0.00;0.00;;;3.50;44.10;;;;;;5015889;28;20037;-77
2021/12/22 09:44:44;;;;;;;0.00;0.00;;;3.00;44.20;;;;;;5015832;28;20029;-77
2021/12/22 09:47:17;;;;;;;0.00;0.00;;;2.60;45.30;;;;;;5015784;28;20025;-76
2021/12/22 09:52:26;;;;;;;0.00;0.00;;;3.30;45.90;;;;;;5015966;28;20040;-77
2021/12/22 09:54:55;;;;;;;0.00;0.00;;;3.50;45.40;;;;;;5014923;28;20529;-76
2021/12/22 09:57:22;;;;;;;0.00;0.00;;;4.10;45.90;;;;;;5015648;28;20109;-77
2021/12/22 09:59:50;;;;;;;0.00;0.00;;;5.00;45.50;;;;;;5016295;28;20049;-76
2021/12/22 10:02:18;;;;;;;0.00;0.00;;;5.60;44.70;;;;;;5016118;28;20026;-76
2021/12/22 10:04:45;;;;;;;0.00;0.00;;;6.20;44.40;;;;;;5015724;28;20053;-76
2021/12/22 10:07:20;;;;;;;0.00;0.00;;;6.80;43.80;;;;;;5015498;28;20378;-75
2021/12/22 10:09:47;;;;;;;0.00;0.00;;;7.00;42.90;;;;;;5015266;28;20415;-77
2021/12/22 10:12:21;;;;;;;0.00;0.00;;;6.90;42.20;;;;;;5015233;28;20034;-76
2021/12/22 10:14:57;;;;;;;0.00;0.00;;;7.10;41.30;;;;;;5015013;28;20121;-75
2021/12/22 10:17:29;;;;;;;0.00;0.00;;;7.50;41.70;;;;;;5015344;28;20038;-76
2021/12/22 10:20:00;;;;;;;0.00;0.00;;;7.80;41.30;;;;;;5014820;28;20038;-76
2021/12/22 10:22:47;;;;;;;0.00;0.00;;;8.50;42.00;;;;;;5015379;28;20366;-74
2021/12/22 10:25:23;;;;;;;0.00;0.00;;;9.20;40.10;;;;;;5014872;28;20037;-75
2021/12/22 10:28:00;;;;;;;0.00;0.00;;;9.10;39.70;;;;;;5015082;28;20106;-75
2021/12/22 10:30:42;;;;;;;0.00;0.00;;;8.40;37.80;;;;;;5014756;28;20026;-77
2021/12/22 10:33:12;;;;;;;0.00;0.00;;;7.20;38.30;;;;;;5014787;28;20041;-76
2021/12/22 10:35:40;;;;;;;0.00;0.00;;;6.30;39.10;;;;;;5014296;28;20045;-77
2021/12/22 10:38:07;;;;;;;0.00;0.00;;;5.40;38.60;;;;;;5014803;28;20029;-76
2021/12/22 10:40:42;;;;;;;0.00;0.00;;;4.20;39.30;;;;;;5013970;28;20053;-76
2021/12/22 10:43:14;;;;;;;0.00;0.00;;;3.30;40.70;;;;;;5014704;28;20046;-76
2021/12/22 10:45:39;;;;;;;0.00;0.00;;;2.80;41.40;;;;;;5014832;28;20061;-76
2021/12/22 10:50:57;;;;;;;0.00;0.00;;;1.70;41.80;;;;;;5014483;28;20492;-77
2021/12/22 10:53:24;;;;;;;0.00;0.00;;;1.10;42.60;;;;;;5014108;28;20509;-75
2021/12/22 10:55:53;;;;;;;0.00;0.00;;;0.80;43.20;;;;;;5015031;28;20037;-76
2021/12/22 10:58:32;;;;;;;0.00;0.00;;;0.60;43.40;;;;;;5014300;28;20109;-77
2021/12/22 11:01:13;;;;;;;0.00;0.00;;;0.30;43.60;;;;;;4997520;28;20101;-76
2021/12/22 11:03:53;;;;;;;0.00;0.00;;;-0.10;44.00;;;;;;5014671;28;20037;-74
2021/12/22 11:06:29;;;;;;;0.00;0.00;;;-0.10;44.70;;;;;;5014278;28;20112;-77
2021/12/22 11:08:57;;;;;;;0.00;0.00;;;-0.20;44.60;;;;;;5014400;28;20030;-75
2021/12/22 11:11:26;;;;;;;0.00;0.00;;;-0.50;44.80;;;;;;5014125;28;20034;-79
2021/12/22 11:14:03;;;;;;;0.00;0.00;;;-0.80;44.90;;;;;;5014218;28;20065;-78
2021/12/22 11:16:29;;;;;;;0.00;0.00;;;-1.00;45.70;;;;;;5014626;28;20029;-75
2021/12/22 11:19:07;;;;;;;0.00;0.00;;;-1.00;46.10;;;;;;4996674;28;20026;-76
2021/12/22 11:21:35;;;;;;;0.10;0.00;;;-0.90;46.10;;;;;;5014719;28;20453;-74
2021/12/22 11:24:01;;;;;;;0.00;0.00;;;-1.10;46.00;;;;;;5014252;28;20030;-76
2021/12/22 11:26:28;;;;;;;0.00;0.00;;;-1.20;46.60;;;;;;5014386;28;20052;-76
2021/12/22 11:28:54;;;;;;;0.00;0.00;;;-1.20;46.80;;;;;;5013844;28;20450;-76
2021/12/22 11:31:20;;;;;;;0.00;0.00;;;-1.10;46.90;;;;;;4996565;28;20091;-75
2021/12/22 11:33:47;;;;;;;0.00;0.00;;;-0.90;47.30;;;;;;5013367;28;20163;-77
2021/12/22 11:36:14;;;;;;;0.00;0.00;;;-0.70;47.00;;;;;;5013960;28;20038;-77
2021/12/22 11:38:43;;;;;;;0.00;0.00;;;-0.70;46.70;;;;;;5013660;28;20386;-77
2021/12/22 11:41:15;;;;;;;0.00;0.00;;;-0.80;46.80;;;;;;5013587;28;20385;-76
2021/12/22 11:43:43;;;;;;;0.00;0.00;;;-1.00;46.40;;;;;;5013553;28;20045;-77
2021/12/22 11:46:10;;;;;;;0.00;0.00;;;-1.30;46.60;;;;;;4995122;28;20359;-76
2021/12/22 11:48:37;;;;;;;0.00;0.00;;;-1.60;47.00;;;;;;5013730;28;20120;-76
2021/12/22 11:51:20;;;;;;;0.00;0.00;;;-1.90;47.40;;;;;;5014420;28;20041;-77
2021/12/22 11:53:56;;;;;;;0.00;0.00;;;-2.20;48.40;;;;;;4998606;28;20029;-76
2021/12/22 11:56:35;;;;;;;0.00;0.00;;;-2.40;48.40;;;;;;5013416;28;20093;-75
2021/12/22 11:59:01;;;;;;;0.00;0.00;;;-2.50;48.90;;;;;;5013701;28;20050;-76
2021/12/22 12:01:27;;;;;;;0.00;0.00;;;-2.70;49.00;;;;;;5013671;28;20034;-78
2021/12/22 12:04:14;;;;;;;0.00;0.00;;;-2.90;49.50;;;;;;5013198;28;20046;-78
2021/12/22 12:06:48;;;;;;;0.00;0.00;;;-3.00;49.80;;;;;;5014148;28;20109;-76
2021/12/22 12:09:14;;;;;;;0.00;0.00;;;-3.00;50.10;;;;;;5012605;28;20037;-78
2021/12/22 12:11:47;;;;;;;0.00;0.00;;;-3.10;50.10;;;;;;5013645;28;20037;-76
2021/12/22 12:14:36;;;;;;;0.00;0.00;;;-3.20;50.20;;;;;;5013970;28;20645;-76
2021/12/22 12:23:39;;;;;;;0.00;0.00;;;-3.50;50.90;;;;;;5013774;28;20061;-77
2021/12/22 12:26:06;;;;;;;0.00;0.00;;;-3.60;51.10;;;;;;4952718;29;20043;-75
2021/12/22 12:28:47;;;;;;;0.00;0.00;;;-3.70;51.30;;;;;;4985010;28;20042;-76
2021/12/22 12:31:12;;;;;;;0.00;0.00;;;-3.80;51.70;;;;;;5013733;28;20072;-78
2021/12/22 12:33:44;;;;;;;0.00;0.00;;;-3.90;51.90;;;;;;5012787;28;20042;-76
2021/12/22 12:36:12;;;;;;;0.00;0.00;;;-4.00;52.20;;;;;;5013165;28;20057;-76
2021/12/22 12:38:46;;;;;;;0.00;0.00;;;-3.90;52.40;;;;;;5013669;28;20077;-76
2021/12/22 12:41:17;;;;;;;0.00;0.00;;;-4.00;52.10;;;;;;5013441;28;20030;-76
2021/12/22 12:43:53;;;;;;;0.00;0.00;;;-4.00;52.10;;;;;;5013308;28;20041;-77
2021/12/22 12:46:39;;;;;;;0.00;0.00;;;-4.10;52.10;;;;;;5012941;28;20029;-80
2021/12/22 12:49:06;;;;;;;0.00;0.00;;;-4.20;52.30;;;;;;5013047;28;20025;-79
2021/12/22 12:51:37;;;;;;;0.00;0.00;;;-4.30;52.50;;;;;;5012955;28;20486;-77
2021/12/22 12:54:09;;;;;;;0.00;0.00;;;-4.40;52.70;;;;;;5012968;28;20086;-77
2021/12/22 12:56:40;;;;;;;0.00;0.00;;;-4.50;53.00;;;;;;5012361;28;20084;-77
2021/12/22 12:59:11;;;;;;;0.00;0.00;;;-4.60;53.30;;;;;;5013947;28;20100;-77
2021/12/22 13:01:46;;;;;;;0.00;0.00;;;-4.60;53.60;;;;;;5015940;28;20104;-77
2021/12/22 13:04:21;;;;;;;0.00;0.00;;;-4.60;53.80;;;;;;5014654;28;20029;-77
2021/12/22 13:06:47;;;;;;;0.00;0.00;;;-4.60;53.70;;;;;;5015101;28;20113;-77
2021/12/22 13:09:33;;;;;;;0.00;0.00;;;-4.60;53.50;;;;;;5016344;28;20466;-77
2021/12/22 13:18:12;;;;;;;0.00;0.00;;;-4.50;53.10;;;;;;5016976;28;20057;-76
2021/12/22 13:20:40;;;;;;;0.00;0.00;;;-4.50;52.60;;;;;;5016190;28;20030;-78
2021/12/22 13:23:12;;;;;;;0.00;0.00;;;-4.50;52.60;;;;;;5015284;28;20082;-77
2021/12/22 13:25:40;;;;;;;0.00;0.00;;;-4.50;52.50;;;;;;5016181;28;20080;-78
2021/12/22 13:28:13;;;;;;;0.00;0.00;;;-4.50;52.30;;;;;;5015923;28;20125;-79
2021/12/22 13:30:43;;;;;;;0.00;0.00;;;-4.60;51.90;;;;;;5015516;28;20026;-78
2021/12/22 13:33:21;;;;;;;0.00;0.00;;;-4.70;51.80;;;;;;5015862;28;20029;-77